Latest Weather Observations for Scone Airport

IDN60801

Issued at 2:03 am EST Thursday 21 September 2017 (issued every 30 minutes, with the page automatically refreshed every 10 minutes)

About weather observations | Map of weather stations | Latest weather observations for NSW | Other Formats
Station Details ID: 061363 Name: SCONE AIRPORT AWS Lat: -32.03 Lon: 150.83 Height: 221.4 m
Data from the previous 72 hours. | See also: Recent months at Scone Airport
Date/Time
EST
Temp
°C
App
Temp
°C
Dew
Point
°C
Rel
Hum
%
Delta-T
°C
Wind Press
QNH
hPa
Press
MSL
hPa
Rain since
9am
mm
Dir  Spd
km/h
Gust
km/h
Spd
kts
Gust
kts
21/02:00am 3.5 1.5 -0.1 77 1.4 CALM 0 0 0 0 1017.2 1017.0 0.0
21/01:30am 3.8 1.8 0.0 76 1.4 CALM 0 0 0 0 1017.5 1017.3 0.0
21/01:00am 4.2 0.9 -0.2 73 1.7 WNW 7 9 4 5 1017.7 1017.5 0.0
21/12:30am 4.7 1.6 0.3 73 1.7 WNW 6 9 3 5 1017.6 1017.4 0.0
21/12:00am 5.5 3.5 -0.1 67 2.2 CALM 0 0 0 0 1017.7 1017.5 0.0
 
Date/Time
EST
Temp
°C
App
Temp
°C
Dew
Point
°C
Rel
Hum
%
Delta-T
°C
Wind Press
QNH
hPa
Press
MSL
hPa
Rain since
9am
mm
Dir  Spd
km/h
Gust
km/h
Spd
kts
Gust
kts
20/11:30pm 5.5 3.6 0.3 69 2.0 CALM 0 0 0 0 1017.9 1017.7 0.0
20/11:00pm 5.7 2.6 -0.1 66 2.2 WNW 6 7 3 4 1018.1 1017.9 0.0
20/10:30pm 6.5 2.4 0.0 63 2.5 WNW 11 13 6 7 1018.2 1018.0 0.0
20/10:00pm 7.9 5.6 0.6 60 2.9 WNW 2 6 1 3 1018.2 1018.0 0.0
20/09:30pm 7.3 4.5 -0.2 59 3.0 WNW 4 6 2 3 1018.0 1017.8 0.0
20/09:00pm 8.2 5.8 -0.5 54 3.4 WNW 2 6 1 3 1017.8 1017.6 0.0
20/08:30pm 10.5 8.1 0.0 48 4.3 WNW 2 6 1 3 1017.9 1017.7 0.0
20/08:00pm 9.2 7.1 -0.9 49 4.0 CALM 0 0 0 0 1017.9 1017.7 0.0
20/07:30pm 10.5 7.0 -1.2 44 4.7 WNW 7 9 4 5 1017.7 1017.5 0.0
20/07:00pm 12.3 10.2 -0.9 40 5.4 CALM 0 0 0 0 1017.3 1017.1 0.0
20/06:30pm 14.4 11.1 -1.2 34 6.5 WSW 6 6 3 3 1017.0 1016.8 0.0
20/06:00pm 16.1 12.6 -1.5 30 7.4 SSW 7 9 4 5 1016.5 1016.4 0.0
20/05:30pm 17.8 14.2 -1.9 26 8.3 SE 7 9 4 5 1016.2 1016.0 0.0
20/05:00pm 20.0 15.6 -2.3 22 9.5 SSE 11 13 6 7 1016.1 1015.9 0.0
20/04:30pm 20.8 16.6 -3.6 19 10.2 SSE 9 15 5 8 1015.9 1015.7 0.0
20/04:00pm 21.2 16.3 -3.3 19 10.4 SSE 13 19 7 10 1015.8 1015.6 0.0
20/03:30pm 21.4 16.6 -2.5 20 10.3 SSE 13 19 7 10 1015.8 1015.6 0.0
20/03:00pm 21.4 17.0 -2.5 20 10.3 S 11 24 6 13 1016.0 1015.8 0.0
20/02:30pm 21.4 16.3 -1.8 21 10.1 S 15 20 8 11 1016.2 1016.0 0.0
20/02:00pm 20.6 16.3 -1.8 22 9.7 SE 11 19 6 10 1016.7 1016.5 0.0
20/01:30pm 21.2 16.6 -0.7 23 9.7 S 13 20 7 11 1017.3 1017.1 0.0
20/01:00pm 20.3 16.1 -0.9 24 9.3 SSE 11 17 6 9 1017.7 1017.5 0.0
20/12:30pm 19.1 14.8 -1.4 25 8.8 SSE 11 17 6 9 1018.3 1018.1 0.0
20/12:00pm 18.9 15.5 -0.5 27 8.5 ESE 7 17 4 9 1019.0 1018.8 0.0
20/11:30am 17.6 14.4 -0.6 29 7.9 S 6 15 3 8 1019.5 1019.3 0.0
20/11:00am 17.0 13.7 -0.2 31 7.4 S 7 13 4 7 1019.9 1019.7 0.0
20/10:30am 16.3 12.5 -0.4 32 7.2 S 9 20 5 11 1020.5 1020.4 0.0
20/10:00am 15.4 11.6 -0.8 33 6.8 SE 9 13 5 7 1020.9 1020.8 0.0
20/09:30am 15.4 11.8 0.4 36 6.5 SW 9 15 5 8 1021.2 1021.1 0.0
20/09:00am 13.2 10.8 -0.1 40 5.6 SSE 2 6 1 3 1021.4 1021.2 0.0
20/08:30am 12.4 10.5 0.8 45 4.9 CALM 0 6 0 3 1021.4 1021.2 0.0
20/08:00am 10.1 8.2 0.4 51 4.0 CALM 0 4 0 2 1021.2 1021.1 0.0
20/07:30am 6.9 4.2 0.6 64 2.5 W 4 7 2 4 1021.1 1021.0 0.0
20/07:00am 4.8 2.5 0.2 72 1.8 SW 2 6 1 3 1021.0 1020.9 0.0
20/06:30am 3.3 0.6 0.4 81 1.1 SW 4 6 2 3 1020.8 1020.7 0.0
20/06:00am 2.0 -0.2 -1.2 79 1.1 CALM 0 0 0 0 1020.7 1020.6 0.0
20/05:30am 1.4 -0.8 -1.7 80 1.1 CALM 0 0 0 0 1020.5 1020.4 0.0
20/05:00am 1.8 -1.2 -1.6 78 1.2 WNW 4 7 2 4 1020.0 1019.8 0.0
20/04:30am 2.5 -1.0 -1.1 77 1.3 W 7 7 4 4 1019.8 1019.6 0.0
20/04:00am 2.7 -0.3 -1.6 73 1.5 W 4 9 2 5 1019.9 1019.7 0.0
20/03:30am 3.7 1.6 -1.1 71 1.8 CALM 0 0 0 0 1019.8 1019.6 0.0
20/03:00am 3.4 1.2 -1.7 69 1.8 CALM 0 0 0 0 1020.0 1019.8 0.0
20/02:30am 4.4 1.8 -2.0 63 2.3 NNW 2 9 1 5 1020.1 1019.9 0.0
20/02:00am 5.3 3.1 -1.2 63 2.4 CALM 0 6 0 3 1020.2 1020.0 0.0
20/01:30am 4.7 1.7 -2.2 61 2.5 NE 4 7 2 4 1020.2 1020.0 0.0
20/01:00am 6.5 3.9 -1.4 57 3.0 WNW 2 7 1 4 1020.2 1020.0 0.0
20/12:30am 7.0 4.0 -1.7 54 3.3 N 4 7 2 4 1020.4 1020.3 0.0
20/12:00am 8.1 4.4 -2.5 47 4.0 NW 7 9 4 5 1020.1 1019.9 0.0
 
Date/Time
EST
Temp
°C
App
Temp
°C
Dew
Point
°C
Rel
Hum
%
Delta-T
°C
Wind Press
QNH
hPa
Press
MSL
hPa
Rain since
9am
mm
Dir  Spd
km/h
Gust
km/h
Spd
kts
Gust
kts
19/11:30pm 8.6 5.2 -2.1 47 4.1 WNW 6 13 3 7 1020.0 1019.8 0.0
19/11:00pm 11.0 8.2 -3.5 36 5.5 N 2 7 1 4 1019.8 1019.6 0.0
19/10:30pm 13.1 9.5 -3.6 31 6.5 E 6 13 3 7 1019.7 1019.5 0.0
19/10:00pm 14.6 10.4 -3.7 28 7.2 NNW 9 15 5 8 1019.7 1019.5 0.0
19/09:30pm 15.9 11.4 -3.0 27 7.6 NNW 11 20 6 11 1019.5 1019.3 0.0
19/09:00pm 13.7 9.8 -4.5 28 6.9 N 7 13 4 7 1019.2 1019.0 0.0
19/08:30pm 15.2 10.2 -4.7 25 7.7 NNW 13 19 7 10 1018.7 1018.5 0.0
19/08:00pm 14.5 9.5 -4.7 26 7.4 NW 13 20 7 11 1018.5 1018.3 0.0
19/07:30pm 14.9 9.0 -5.5 24 7.7 W 17 26 9 14 1018.1 1017.9 0.0
19/07:00pm 15.1 9.7 -4.8 25 7.7 W 15 22 8 12 1017.7 1017.5 0.0
19/06:30pm 16.4 11.3 -5.3 22 8.4 W 13 20 7 11 1017.3 1017.1 0.0
19/06:00pm 18.2 11.6 -6.5 18 9.5 W 20 24 11 13 1016.4 1016.2 0.0
19/05:30pm 20.2 10.9 -9.1 13 10.9 WSW 33 41 18 22 1015.6 1015.4 0.0
19/05:00pm 21.2 11.9 -9.3 12 11.4 WSW 33 50 18 27 1014.8 1014.6 0.0
19/04:56pm 21.4 12.3 -10.2 11 11.7 WSW 32 50 17 27 1014.7 1014.5 0.0
19/04:30pm 22.0 11.9 -9.8 11 11.9 WSW 37 50 20 27 1014.6 1014.4 0.0
19/04:13pm 22.9 13.3 -9.1 11 12.3 WSW 35 54 19 29 1014.6 1014.4 0.0
19/04:00pm 23.1 13.3 -11.5 9 12.7 WSW 35 48 19 26 1014.5 1014.3 0.0
19/03:39pm 23.8 14.0 -10.9 9 13.0 WSW 35 54 19 29 1014.4 1014.2 0.0
19/03:30pm 23.8 13.3 -10.9 9 13.0 WSW 39 50 21 27 1014.4 1014.2 0.0
19/03:12pm 24.3 13.2 -13.7 7 13.6 WSW 41 59 22 32 1014.3 1014.1 0.0
19/03:00pm 24.4 14.0 -9.1 10 13.1 WSW 39 52 21 28 1014.3 1014.1 0.0
19/02:30pm 24.6 14.2 -9.0 10 13.2 WSW 39 54 21 29 1014.5 1014.3 0.0
19/02:03pm 25.5 15.6 -3.9 14 12.8 W 39 57 21 31 1014.3 1014.1 0.0
19/02:00pm 25.1 14.8 -4.2 14 12.6 W 41 57 22 31 1014.3 1014.1 0.0
19/01:38pm 25.6 16.7 -2.1 16 12.5 WSW 35 56 19 30 1014.5 1014.3 0.0
19/01:30pm 24.6 15.2 -2.9 16 12.1 WSW 37 50 20 27 1014.6 1014.4 0.0
19/01:03pm 25.2 16.8 -0.8 18 11.9 WSW 33 52 18 28 1014.7 1014.5 0.0
19/01:00pm 25.2 16.5 -0.8 18 11.9 WSW 35 52 19 28 1014.6 1014.4 0.0
19/12:30pm 25.2 16.6 0.0 19 11.7 W 35 46 19 25 1014.5 1014.3 0.0
19/12:00pm 25.7 19.1 1.8 21 11.5 W 26 43 14 23 1014.8 1014.6 0.0
19/11:30am 25.3 18.9 0.8 20 11.6 W 24 39 13 21 1015.3 1015.1 0.0
19/11:00am 25.3 17.5 1.4 21 11.4 W 32 43 17 23 1015.6 1015.4 0.0
19/10:30am 25.2 19.2 5.4 28 10.2 WNW 26 39 14 21 1015.6 1015.4 0.0
19/10:00am 23.8 17.4 5.2 30 9.4 NW 28 39 15 21 1015.7 1015.5 0.0
19/09:39am 22.8 15.5 5.3 32 8.8 NW 33 52 18 28 1015.7 1015.5 0.0
19/09:30am 23.2 16.0 6.1 33 8.8 NW 33 48 18 26 1015.7 1015.5 0.0
19/09:01am 22.4 13.7 5.8 34 8.4 NW 41 59 22 32 1015.7 1015.5 0.0
19/09:00am 22.3 13.2 5.7 34 8.4 NW 43 59 23 32 1015.6 1015.4 0.0
19/08:30am 22.1 12.8 5.9 35 8.2 NW 44 63 24 34 1015.6 1015.4 0.0
19/08:14am 21.8 14.2 5.7 35 8.1 WNW 35 54 19 29 1015.5 1015.3 0.0
19/08:00am 21.8 15.7 4.8 33 8.4 WNW 26 35 14 19 1015.4 1015.2 0.0
19/07:30am 21.4 15.6 4.5 33 8.3 NW 24 35 13 19 1015.1 1014.9 0.0
19/07:00am 21.2 13.9 4.3 33 8.3 NW 32 52 17 28 1014.7 1014.5 0.0
19/06:34am 20.8 13.2 4.0 33 8.2 NW 33 61 18 33 1014.2 1014.0 0.0
19/06:30am 20.8 13.2 4.0 33 8.2 NW 33 44 18 24 1014.3 1014.1 0.0
19/06:00am 21.2 14.6 4.3 33 8.3 NW 28 48 15 26 1013.8 1013.6 0.0
19/05:59am 21.5 15.0 4.6 33 8.4 NW 28 48 15 26 1013.8 1013.6 0.0
19/05:30am 20.2 15.6 3.9 34 7.9 NNW 17 24 9 13 1013.7 1013.5 0.0
19/05:00am 20.6 15.5 3.3 32 8.3 N 19 28 10 15 1013.6 1013.4 0.0
19/04:30am 21.5 14.7 3.2 30 8.8 NNW 28 46 15 25 1013.4 1013.2 0.0
19/04:29am 21.6 14.8 3.3 30 8.8 NNW 28 46 15 25 1013.4 1013.2 0.0
19/04:00am 19.5 14.8 3.2 34 7.7 NW 17 26 9 14 1013.6 1013.4 0.0
19/03:30am 19.5 14.8 3.2 34 7.7 NNW 17 20 9 11 1013.9 1013.7 0.0
19/03:00am 17.2 13.2 3.1 39 6.6 NW 13 19 7 10 1013.9 1013.7 0.0
19/02:30am 17.8 14.3 3.3 38 6.8 NW 11 15 6 8 1014.3 1014.1 0.0
19/02:00am 18.2 14.7 3.7 38 6.9 NNW 11 13 6 7 1014.7 1014.5 0.0
19/01:30am 15.7 12.4 4.4 47 5.3 NNW 11 17 6 9 1015.2 1015.0 0.0
19/01:00am 12.0 9.6 4.2 59 3.6 N 6 9 3 5 1015.6 1015.4 0.0
19/12:30am 12.4 9.4 3.9 56 3.9 NW 9 13 5 7 1016.2 1016.0 0.0
19/12:00am 13.1 9.4 4.3 55 4.1 NNW 13 17 7 9 1016.7 1016.5 0.0
 
Date/Time
EST
Temp
°C
App
Temp
°C
Dew
Point
°C
Rel
Hum
%
Delta-T
°C
Wind Press
QNH
hPa
Press
MSL
hPa
Rain since
9am
mm
Dir  Spd
km/h
Gust
km/h
Spd
kts
Gust
kts
18/11:30pm 10.2 7.6 4.1 66 2.7 NW 7 11 4 6 1017.0 1016.8 0.0
18/11:00pm 10.5 7.8 3.5 62 3.1 WNW 7 11 4 6 1017.3 1017.1 0.0
18/10:30pm 12.4 11.1 4.1 57 3.8 CALM 0 0 0 0 1017.7 1017.5 0.0
18/10:00pm 11.9 10.6 3.9 58 3.6 CALM 0 0 0 0 1018.0 1017.8 0.0
18/09:30pm 12.4 10.0 4.1 57 3.8 NE 6 9 3 5 1018.3 1018.1 0.0
18/09:00pm 13.5 11.0 3.6 51 4.5 NW 6 9 3 5 1018.5 1018.3 0.0
18/08:30pm 15.2 12.1 3.4 45 5.4 W 9 13 5 7 1018.4 1018.2 0.0
18/08:00pm 17.6 14.0 3.1 38 6.7 NW 11 13 6 7 1018.4 1018.2 0.0
18/07:30pm 17.0 14.2 1.8 36 6.9 NW 6 13 3 7 1018.2 1018.0 0.0
18/07:00pm 18.5 14.5 2.8 35 7.3 NW 13 15 7 8 1018.2 1018.0 0.0
18/06:30pm 21.2 17.1 2.5 29 8.9 N 13 17 7 9 1018.0 1017.8 0.0
18/06:00pm 22.5 18.4 2.1 26 9.7 NNW 13 19 7 10 1018.0 1017.8 0.0
18/05:30pm 23.6 19.1 2.4 25 10.2 NNW 15 24 8 13 1018.0 1017.8 0.0
18/05:00pm 24.6 20.1 2.1 23 10.8 NNW 15 22 8 12 1018.1 1017.9 0.0
18/04:30pm 25.3 19.8 2.1 22 11.2 NW 20 32 11 17 1018.0 1017.8 0.0
18/04:00pm 25.8 20.7 3.1 23 11.2 NW 19 28 10 15 1017.9 1017.7 0.0
18/03:30pm 25.5 19.8 2.9 23 11.1 NW 22 39 12 21 1018.1 1017.9 0.0
18/03:00pm 26.0 20.5 2.0 21 11.6 NNW 20 32 11 17 1018.5 1018.3 0.0
18/02:30pm 25.9 19.2 1.2 20 11.8 WNW 26 32 14 17 1019.0 1018.8 0.0
18/02:00pm 25.9 19.3 -0.2 18 12.1 WNW 24 39 13 21 1019.6 1019.4 0.0
18/01:30pm 24.8 19.1 0.3 20 11.4 NNW 20 32 11 17 1020.0 1019.8 0.0
18/01:00pm 24.6 18.7 -0.5 19 11.5 NNW 20 32 11 17 1020.6 1020.5 0.0
18/12:30pm 24.1 17.8 -0.9 19 11.4 NW 22 35 12 19 1021.2 1021.1 0.0
18/12:00pm 23.8 16.2 -1.9 18 11.4 NW 28 37 15 20 1022.0 1021.8 0.0
18/11:30am 23.3 15.7 -2.3 18 11.2 NW 28 39 15 21 1022.5 1022.3 0.0
18/11:00am 22.2 16.5 0.7 24 9.9 NNW 20 39 11 21 1023.1 1022.9 0.0
18/10:30am 21.4 17.2 1.7 27 9.2 NW 13 20 7 11 1023.6 1023.4 0.0
18/10:00am 18.5 16.7 3.6 37 7.0 WSW 2 9 1 5 1024.2 1024.1 0.0
18/09:30am 15.7 13.4 5.0 49 5.1 SSE 6 9 3 5 1024.6 1024.5 0.0
18/09:00am 13.4 11.4 4.6 55 4.1 SSE 4 7 2 4 1025.0 1024.9 0.0
18/08:30am 11.3 9.7 4.7 64 3.0 SE 2 7 1 4 1025.2 1025.1 0.0
18/08:00am 8.8 7.7 5.0 77 1.7 CALM 0 7 0 4 1025.3 1025.2 0.0
18/07:30am 6.4 5.5 6.1 98 0.1 CALM 0 0 0 0 1025.0 1024.9 0.0
18/07:00am 3.4 1.6 3.3 99 0.0 W 2 7 1 4 1025.0 1024.9 0.0
18/06:30am 1.2 -0.6 1.1 99 0.0 CALM 0 6 0 3 1024.8 1024.7 0.0
18/06:00am 0.7 -2.0 0.4 98 0.1 W 4 6 2 3 1024.6 1024.5 0.0
18/05:30am 1.7 -0.1 1.4 98 0.1 CALM 0 0 0 0 1024.6 1024.5 0.0
18/05:00am 1.6 -0.2 1.5 99 0.0 CALM 0 0 0 0 1024.4 1024.3 0.0
18/04:30am 1.0 -0.9 0.6 97 0.1 CALM 0 0 0 0 1024.4 1024.3 0.0
18/04:00am 1.5 -0.3 0.9 96 0.2 CALM 0 0 0 0 1024.1 1023.9 0.0
18/03:30am 1.9 0.1 1.3 96 0.2 CALM 0 0 0 0 1024.5 1024.4 0.0
18/03:00am 2.4 0.7 1.8 96 0.2 CALM 0 0 0 0 1024.7 1024.6 0.0
18/02:30am 2.5 0.8 1.6 94 0.4 CALM 0 0 0 0 1024.7 1024.6 0.0

Other Formats:

Comma delimited format used in spreadsheet applications
http://www.bom.gov.au/fwo/IDN60801/IDN60801.95758.axf

JavaScript Object Notation format (JSON) in row-major order
http://www.bom.gov.au/fwo/IDN60801/IDN60801.95758.json